Weather reports worldwide

Advertisment
Ile du Levant, France (7678): temperature & dewpoint: 17.05.2019 14:00:00 - 23.05.2019 14:00:00 (CEST)Ile du Levant, France (7678): wind speed & gusts: 17.05.2019 14:00:00 - 23.05.2019 14:00:00 (CEST)Ile du Levant, France (7678): wind direction: 17.05.2019 14:00:00 - 23.05.2019 14:00:00 (CEST)Ile du Levant, France (7678): reduced air pressure: 17.05.2019 14:00:00 - 23.05.2019 14:00:00 (CEST)Ile du Levant, France (7678): sunshine duration: 17.05.2019 14:00:00 - 23.05.2019 14:00:00 (CEST)Ile du Levant, France (7678): precipitation: 17.05.2019 14:00:00 - 23.05.2019 14:00:00 (CEST)
Date & Time tt [°C] td [°C] ff [km/h] ff [kn] fx [km/h] fx [kn] dd ppp [hPa] sd [min] rr [mm]
23.05.2019 14:00:00 - - - - - - - - - -
23.05.2019 13:00:00 19,1 13,9 16 9 26 14 ESE 1017,1 60 0,0
23.05.2019 12:00:00 18,8 14,1 16 9 34 18 ESE 1017,5 60 0,0
23.05.2019 11:00:00 18,1 13,4 22 12 35 19 E 1017,3 60 0,0
23.05.2019 10:00:00 18,2 14,1 22 12 35 19 E 1017,1 60 0,0
23.05.2019 09:00:00 17,1 14,4 24 13 31 17 E 1016,8 48 0,0
23.05.2019 08:00:00 15,7 14,2 24 13 31 17 E 1016,4 60 -
23.05.2019 07:00:00 14,6 14,0 21 11 29 16 E 1016,2 24 0,0
23.05.2019 06:00:00 14,1 13,5 16 9 26 14 E 1016,1 0 0,0
23.05.2019 05:00:00 14,1 13,5 16 9 26 14 E 1015,9 0 0,0
23.05.2019 04:00:00 14,5 13,9 18 10 28 15 E 1016,1 0 0,2
23.05.2019 03:00:00 14,6 13,8 16 9 21 11 E 1016,1 0 0,0
23.05.2019 02:00:00 14,8 13,2 5 3 11 6 ENE 1016,3 0 -
23.05.2019 01:00:00 15,1 13,1 4 2 8 4 WSW 1016,2 0 0,0
23.05.2019 00:00:00 15,3 13,7 4 2 8 4 SSW 1016,3 0 0,0
22.05.2019 23:00:00 15,4 13,4 8 4 13 7 SSW 1016,4 0 0,0
22.05.2019 22:00:00 15,4 12,5 9 5 18 10 WSW 1016,1 0 0,0
22.05.2019 21:00:00 16,3 10,6 4 2 13 7 SW 1015,9 24 0,0
22.05.2019 20:00:00 17,8 10,9 5 3 15 8 SW 1015,3 60 -
22.05.2019 19:00:00 18,3 12,9 9 5 16 9 W 1015,5 60 0,0
22.05.2019 18:00:00 20,3 13,3 4 2 18 10 WSW 1015,6 60 0,0
22.05.2019 17:00:00 18,0 13,3 11 6 22 12 W 1015,7 48 0,0
22.05.2019 16:00:00 18,2 14,1 11 6 18 10 W 1015,9 18 0,0
22.05.2019 15:00:00 19,4 12,6 8 4 24 13 E 1015,9 42 0,0
22.05.2019 14:00:00 19,2 14,0 13 7 22 12 ESE 1015,7 24 -
22.05.2019 13:00:00 18,6 13,5 13 7 31 17 E 1015,9 24 0,0
22.05.2019 12:00:00 18,1 13,6 22 12 34 18 E 1015,7 48 0,0
22.05.2019 11:00:00 17,5 13,2 21 11 35 19 E 1015,4 6 0,0
22.05.2019 10:00:00 16,9 12,6 16 9 29 16 ENE 1015,1 36 0,0
22.05.2019 09:00:00 16,6 12,7 16 9 29 16 ENE 1014,9 30 0,0
22.05.2019 08:00:00 15,2 13,0 13 7 28 15 ENE 1014,5 30 -
22.05.2019 07:00:00 14,8 13,3 13 7 24 13 NE 1014,0 18 0,0
22.05.2019 06:00:00 14,2 13,1 15 8 28 15 NE 1013,7 0 0,0
22.05.2019 05:00:00 13,8 12,9 16 9 28 15 ENE 1013,4 0 0,0
22.05.2019 04:00:00 13,9 13,1 16 9 28 15 ENE 1013,2 0 0,2
22.05.2019 03:00:00 14,3 13,5 15 8 28 15 ENE 1013,1 0 0,0
22.05.2019 02:00:00 14,4 13,4 18 10 28 15 E 1013,2 0 -
22.05.2019 01:00:00 14,3 13,2 16 9 24 13 E 1013,4 0 0,0
22.05.2019 00:00:00 14,4 12,9 15 8 18 10 E 1013,5 0 0,0
21.05.2019 23:00:00 14,3 12,3 13 7 16 9 E 1013,6 0 0,0
21.05.2019 22:00:00 14,7 12,4 9 5 22 12 E 1013,2 0 0,0
21.05.2019 21:00:00 15,5 12,3 15 8 24 13 E 1012,5 24 0,0
21.05.2019 20:00:00 16,9 12,4 13 7 22 12 E 1011,7 60 -
21.05.2019 19:00:00 18,5 12,3 8 4 41 22 NW 1011,4 60 0,0
21.05.2019 18:00:00 18,7 11,3 22 12 67 36 NW 1011,2 60 0,0
21.05.2019 17:00:00 19,3 11,3 44 24 65 35 W 1009,9 60 0,0
21.05.2019 16:00:00 19,3 11,6 44 24 63 34 W 1009,9 60 0,0
21.05.2019 15:00:00 20,5 11,7 31 17 48 26 W 1010,1 60 0,0
21.05.2019 14:00:00 19,3 11,8 34 18 50 27 W 1010,1 60 -
21.05.2019 13:00:00 18,5 12,3 31 17 48 26 W 1010,5 60 0,0
21.05.2019 12:00:00 18,6 12,3 24 13 37 20 W 1010,5 60 0,0
21.05.2019 11:00:00 17,6 12,1 22 12 35 19 W 1010,3 60 0,0
21.05.2019 10:00:00 16,4 11,8 24 13 35 19 W 1010,3 60 0,0
21.05.2019 09:00:00 15,7 11,7 24 13 35 19 W 1009,9 60 0,0
21.05.2019 08:00:00 14,6 11,2 24 13 39 21 W 1009,6 48 -
21.05.2019 07:00:00 14,4 11,2 22 12 37 20 W 1009,1 36 0,0
21.05.2019 06:00:00 14,4 11,0 24 13 35 19 W 1008,7 0 0,0
21.05.2019 05:00:00 14,5 11,5 24 13 35 19 WNW 1008,7 0 0,0
21.05.2019 04:00:00 14,7 11,3 24 13 37 20 W 1008,8 0 0,0
21.05.2019 03:00:00 14,9 10,9 28 15 41 22 WNW 1008,8 0 0,0
21.05.2019 02:00:00 14,9 11,9 18 10 28 15 W 1008,9 0 -
21.05.2019 01:00:00 14,7 11,8 15 8 21 11 W 1009,1 0 0,0
21.05.2019 00:00:00 14,8 11,6 11 6 35 19 WNW 1008,9 0 0,0
20.05.2019 23:00:00 15,7 12,3 26 14 44 24 WNW 1008,6 0 0,0
20.05.2019 22:00:00 16,4 11,3 29 16 46 25 WNW 1008,1 0 0,0
20.05.2019 21:00:00 16,4 11,1 11 6 42 23 NW 1008,1 0 0,0
20.05.2019 20:00:00 17,1 11,4 18 10 52 28 NNW 1007,8 0 -
20.05.2019 19:00:00 16,9 11,6 37 20 55 30 W 1007,0 0 0,0
20.05.2019 18:00:00 17,4 11,9 39 21 59 32 W 1006,5 30 0,0
20.05.2019 17:00:00 17,4 12,3 35 19 55 30 W 1006,6 24 0,0
20.05.2019 16:00:00 17,8 12,0 35 19 59 32 W 1006,2 42 0,0
20.05.2019 15:00:00 18,8 12,5 34 18 52 28 W 1006,3 18 0,0
20.05.2019 14:00:00 16,9 12,4 31 17 46 25 W 1006,4 0 -
20.05.2019 13:00:00 17,9 12,3 26 14 37 20 W 1006,2 18 0,0
20.05.2019 12:00:00 17,5 12,4 15 8 24 13 W 1006,2 12 0,0
20.05.2019 11:00:00 16,9 12,0 15 8 22 12 W 1006,3 60 0,0
20.05.2019 10:00:00 15,6 11,2 16 9 24 13 W 1006,2 54 0,0
20.05.2019 09:00:00 14,9 11,1 21 11 26 14 WNW 1006,0 60 0,0
20.05.2019 08:00:00 13,9 10,5 15 8 21 11 W 1005,6 60 -
20.05.2019 07:00:00 12,9 10,1 15 8 24 13 WNW 1005,5 18 0,0
20.05.2019 06:00:00 12,3 10,0 13 7 21 11 WNW 1005,2 0 0,0
20.05.2019 05:00:00 12,2 10,1 11 6 15 8 NW 1005,0 0 0,0
20.05.2019 04:00:00 12,2 10,3 13 7 18 10 WNW 1005,0 0 0,0
20.05.2019 03:00:00 12,3 10,7 15 8 18 10 WNW 1005,3 0 0,0
20.05.2019 02:00:00 12,5 10,6 15 8 29 16 WNW 1005,7 0 -
20.05.2019 01:00:00 13,1 10,5 22 12 39 21 WNW 1006,0 0 0,0
20.05.2019 00:00:00 13,2 11,1 29 16 44 24 W 1006,3 0 0,0
19.05.2019 23:00:00 13,3 11,0 31 17 44 24 W 1006,4 0 0,0
19.05.2019 22:00:00 13,4 10,6 34 18 52 28 W 1006,1 0 0,0
19.05.2019 21:00:00 13,9 10,1 35 19 55 30 W 1005,5 0 0,0
19.05.2019 20:00:00 14,9 9,7 29 16 44 24 W 1004,9 0 -
19.05.2019 19:00:00 15,4 10,4 28 15 52 28 W 1004,6 0 0,0
19.05.2019 18:00:00 15,5 10,3 34 18 55 30 W 1004,5 0 0,0
19.05.2019 17:00:00 15,2 10,0 39 21 61 33 W 1004,4 0 0,0
19.05.2019 16:00:00 16,3 10,2 37 20 54 29 W 1004,4 54 0,0
19.05.2019 15:00:00 17,5 11,1 34 18 48 26 W 1004,2 60 0,0
19.05.2019 14:00:00 17,4 11,2 28 15 42 23 W 1004,1 48 -
19.05.2019 13:00:00 17,4 11,7 28 15 37 20 W 1004,3 60 0,0
19.05.2019 12:00:00 16,7 11,4 18 10 28 15 W 1004,5 60 0,0
19.05.2019 11:00:00 15,6 10,8 15 8 24 13 W 1004,5 60 0,0
19.05.2019 10:00:00 14,9 10,7 15 8 22 12 W 1004,7 24 0,0
19.05.2019 09:00:00 14,5 10,7 11 6 15 8 WNW 1004,6 0 0,0
19.05.2019 08:00:00 13,7 10,7 9 5 18 10 NW 1004,4 0 -
19.05.2019 07:00:00 13,0 10,7 15 8 21 11 WNW 1004,7 0 0,0
19.05.2019 06:00:00 12,9 11,0 13 7 18 10 WNW 1004,7 0 0,0
19.05.2019 05:00:00 13,0 10,5 8 4 9 5 WNW 1004,7 0 0,0
19.05.2019 04:00:00 12,9 10,8 8 4 16 9 NW 1005,1 0 0,0
19.05.2019 03:00:00 13,3 11,4 13 7 18 10 W 1005,5 0 0,0
19.05.2019 02:00:00 13,5 10,8 16 9 31 17 W 1006,1 0 -
19.05.2019 01:00:00 13,5 10,7 24 13 41 22 W 1006,6 0 0,0
19.05.2019 00:00:00 13,9 11,2 29 16 42 23 W 1006,7 0 0,0
18.05.2019 23:00:00 14,1 11,3 29 16 44 24 W 1007,0 0 0,0
18.05.2019 22:00:00 13,4 10,2 16 9 26 14 W 1007,1 0 0,4
18.05.2019 21:00:00 13,7 11,2 18 10 31 17 W 1006,9 0 0,2
18.05.2019 20:00:00 14,2 9,8 18 10 26 14 W 1006,3 0 -
18.05.2019 19:00:00 14,3 10,3 18 10 28 15 W 1006,0 0 0,0
18.05.2019 18:00:00 14,5 10,5 18 10 31 17 W 1005,9 0 0,0
18.05.2019 17:00:00 14,4 9,8 26 14 35 19 W 1005,6 0 0,0
18.05.2019 16:00:00 15,0 10,8 21 11 29 16 W 1005,4 0 0,0
18.05.2019 15:00:00 16,4 8,1 18 10 26 14 WSW 1005,2 0 0,0
18.05.2019 14:00:00 17,0 11,3 18 10 26 14 W 1005,2 54 -
18.05.2019 13:00:00 16,6 11,1 21 11 29 16 W 1005,4 30 0,0
18.05.2019 12:00:00 15,4 9,1 13 7 24 13 W 1005,5 0 0,0
18.05.2019 11:00:00 14,5 10,5 16 9 24 13 W 1005,3 0 0,0
18.05.2019 10:00:00 14,8 9,8 15 8 21 11 WNW 1005,1 12 0,0
18.05.2019 09:00:00 13,8 10,6 13 7 18 10 NW 1004,8 12 0,0
18.05.2019 08:00:00 12,6 10,0 11 6 21 11 N 1004,5 0 -
18.05.2019 07:00:00 12,0 10,1 15 8 22 12 NW 1004,2 0 0,0
18.05.2019 06:00:00 11,9 10,5 9 5 28 15 N 1004,1 0 0,2
18.05.2019 05:00:00 11,7 10,8 18 10 52 28 NE 1004,2 0 2,0
18.05.2019 04:00:00 11,7 10,9 29 16 57 31 ENE 1004,2 0 3,0
18.05.2019 03:00:00 12,2 10,8 26 14 70 38 NE 1004,0 0 2,0
18.05.2019 02:00:00 14,1 10,5 28 15 59 32 E 1003,9 0 -
18.05.2019 01:00:00 14,0 11,0 42 23 74 40 E 1004,0 0 0,0
18.05.2019 00:00:00 14,1 10,7 48 26 78 42 E 1004,0 0 0,0
17.05.2019 23:00:00 13,9 10,3 44 24 72 39 E 1004,0 0 0,0
17.05.2019 22:00:00 13,6 10,8 41 22 63 34 E 1004,1 0 0,0
17.05.2019 21:00:00 13,3 10,8 44 24 63 34 E 1003,5 0 0,2
17.05.2019 20:00:00 13,0 11,2 37 20 52 28 E 1003,9 0 -
17.05.2019 19:00:00 12,9 11,6 37 20 54 29 E 1004,7 0 2,0
17.05.2019 18:00:00 12,8 10,9 29 16 55 30 E 1005,0 0 2,0
17.05.2019 17:00:00 13,7 10,5 37 20 61 33 E 1004,5 0 0,2
17.05.2019 16:00:00 14,5 10,5 39 21 65 35 E 1005,3 0 0,0
17.05.2019 15:00:00 14,6 10,6 44 24 65 35 E 1005,5 6 0,0
17.05.2019 14:00:00 15,4 11,0 41 22 57 31 E 1006,3 0 -

tt = temperature
td = dewpoint
ff = wind speed
fx = gusts
dd = wind direction
ppp = reduced air pressure
sd = sunshine duration
rr = precipitation

Next stations